sensor_id;sensor_type;location;lat;lon;timestamp;P1;durP1;ratioP1;P2;durP2;ratioP2
2211;SDS011;48849;48.758;9.158;2022-12-01T00:02:17;24.63;;;16.25;;
2211;SDS011;48849;48.758;9.158;2022-12-01T00:04:45;21.27;;;15.40;;
2211;SDS011;48849;48.758;9.158;2022-12-01T00:07:12;21.98;;;15.57;;
2211;SDS011;48849;48.758;9.158;2022-12-01T00:09:39;23.23;;;16.10;;
2211;SDS011;48849;48.758;9.158;2022-12-01T00:12:23;27.52;;;16.50;;
2211;SDS011;48849;48.758;9.158;2022-12-01T00:14:50;23.90;;;16.17;;
2211;SDS011;48849;48.758;9.158;2022-12-01T00:17:24;23.90;;;15.52;;
2211;SDS011;48849;48.758;9.158;2022-12-01T00:19:54;22.98;;;15.88;;
2211;SDS011;48849;48.758;9.158;2022-12-01T00:22:21;22.73;;;15.70;;
2211;SDS011;48849;48.758;9.158;2022-12-01T00:24:48;25.08;;;17.10;;
2211;SDS011;48849;48.758;9.158;2022-12-01T00:27:15;24.02;;;16.48;;
2211;SDS011;48849;48.758;9.158;2022-12-01T00:29:41;23.80;;;17.17;;
2211;SDS011;48849;48.758;9.158;2022-12-01T00:32:08;22.35;;;15.68;;
2211;SDS011;48849;48.758;9.158;2022-12-01T00:34:35;25.85;;;17.95;;
2211;SDS011;48849;48.758;9.158;2022-12-01T00:37:04;25.20;;;16.88;;
2211;SDS011;48849;48.758;9.158;2022-12-01T00:39:31;22.92;;;15.35;;
2211;SDS011;48849;48.758;9.158;2022-12-01T00:41:57;26.08;;;17.63;;
2211;SDS011;48849;48.758;9.158;2022-12-01T00:44:24;25.20;;;16.77;;
2211;SDS011;48849;48.758;9.158;2022-12-01T00:46:51;27.13;;;17.67;;
2211;SDS011;48849;48.758;9.158;2022-12-01T00:49:17;26.70;;;17.33;;
2211;SDS011;48849;48.758;9.158;2022-12-01T00:51:44;26.33;;;17.20;;
2211;SDS011;48849;48.758;9.158;2022-12-01T00:54:12;26.02;;;17.58;;
2211;SDS011;48849;48.758;9.158;2022-12-01T00:56:39;22.83;;;17.33;;
2211;SDS011;48849;48.758;9.158;2022-12-01T00:59:05;24.60;;;16.83;;
2211;SDS011;48849;48.758;9.158;2022-12-01T01:01:32;24.90;;;17.52;;
2211;SDS011;48849;48.758;9.158;2022-12-01T01:03:59;24.45;;;16.83;;
2211;SDS011;48849;48.758;9.158;2022-12-01T01:06:26;21.70;;;15.55;;
2211;SDS011;48849;48.758;9.158;2022-12-01T01:08:52;28.52;;;17.10;;
2211;SDS011;48849;48.758;9.158;2022-12-01T01:11:20;22.85;;;16.13;;
2211;SDS011;48849;48.758;9.158;2022-12-01T01:13:47;23.42;;;16.52;;
2211;SDS011;48849;48.758;9.158;2022-12-01T01:16:15;27.00;;;17.90;;
2211;SDS011;48849;48.758;9.158;2022-12-01T01:18:43;25.88;;;16.17;;
2211;SDS011;48849;48.758;9.158;2022-12-01T01:21:11;23.15;;;16.10;;
2211;SDS011;48849;48.758;9.158;2022-12-01T01:23:39;22.73;;;16.20;;
2211;SDS011;48849;48.758;9.158;2022-12-01T01:26:06;21.98;;;15.82;;
2211;SDS011;48849;48.758;9.158;2022-12-01T01:28:37;20.95;;;15.32;;
2211;SDS011;48849;48.758;9.158;2022-12-01T01:31:05;21.20;;;15.15;;
2211;SDS011;48849;48.758;9.158;2022-12-01T01:33:32;22.80;;;15.55;;
2211;SDS011;48849;48.758;9.158;2022-12-01T01:35:59;21.83;;;15.60;;
2211;SDS011;48849;48.758;9.158;2022-12-01T01:38:27;25.83;;;17.33;;
2211;SDS011;48849;48.758;9.158;2022-12-01T01:40:54;25.63;;;17.08;;
2211;SDS011;48849;48.758;9.158;2022-12-01T01:46:06;24.25;;;16.92;;
2211;SDS011;48849;48.758;9.158;2022-12-01T01:48:34;26.92;;;18.25;;
2211;SDS011;48849;48.758;9.158;2022-12-01T01:51:03;27.88;;;17.52;;
2211;SDS011;48849;48.758;9.158;2022-12-01T01:53:30;22.45;;;16.33;;
2211;SDS011;48849;48.758;9.158;2022-12-01T01:55:58;24.70;;;16.48;;
2211;SDS011;48849;48.758;9.158;2022-12-01T01:58:26;27.60;;;17.15;;
2211;SDS011;48849;48.758;9.158;2022-12-01T02:00:55;22.25;;;16.00;;
2211;SDS011;48849;48.758;9.158;2022-12-01T02:03:22;24.08;;;16.90;;
2211;SDS011;48849;48.758;9.158;2022-12-01T02:05:50;24.90;;;16.38;;
2211;SDS011;48849;48.758;9.158;2022-12-01T02:08:17;26.92;;;17.02;;
2211;SDS011;48849;48.758;9.158;2022-12-01T02:10:49;24.42;;;16.80;;
2211;SDS011;48849;48.758;9.158;2022-12-01T02:13:41;22.23;;;16.40;;
2211;SDS011;48849;48.758;9.158;2022-12-01T02:16:17;23.13;;;16.58;;
2211;SDS011;48849;48.758;9.158;2022-12-01T02:18:54;20.63;;;15.02;;
2211;SDS011;48849;48.758;9.158;2022-12-01T02:21:33;24.45;;;16.27;;
2211;SDS011;48849;48.758;9.158;2022-12-01T02:24:28;24.38;;;16.90;;
2211;SDS011;48849;48.758;9.158;2022-12-01T02:27:31;24.58;;;15.68;;
2211;SDS011;48849;48.758;9.158;2022-12-01T02:30:08;24.15;;;15.90;;
2211;SDS011;48849;48.758;9.158;2022-12-01T02:32:47;24.55;;;17.33;;
2211;SDS011;48849;48.758;9.158;2022-12-01T02:35:21;21.60;;;15.45;;
2211;SDS011;48849;48.758;9.158;2022-12-01T02:37:56;22.70;;;16.70;;
2211;SDS011;48849;48.758;9.158;2022-12-01T02:40:32;22.45;;;15.82;;
2211;SDS011;48849;48.758;9.158;2022-12-01T02:43:06;21.90;;;15.38;;
2211;SDS011;48849;48.758;9.158;2022-12-01T02:45:40;23.70;;;16.77;;
2211;SDS011;48849;48.758;9.158;2022-12-01T02:48:15;22.95;;;15.65;;
2211;SDS011;48849;48.758;9.158;2022-12-01T02:50:46;22.08;;;15.95;;
2211;SDS011;48849;48.758;9.158;2022-12-01T02:53:14;22.23;;;17.05;;
2211;SDS011;48849;48.758;9.158;2022-12-01T02:55:46;21.98;;;15.35;;
2211;SDS011;48849;48.758;9.158;2022-12-01T02:58:14;23.20;;;16.20;;
2211;SDS011;48849;48.758;9.158;2022-12-01T03:00:42;24.05;;;16.17;;
2211;SDS011;48849;48.758;9.158;2022-12-01T03:03:23;22.92;;;15.82;;
2211;SDS011;48849;48.758;9.158;2022-12-01T03:06:01;22.83;;;16.50;;
2211;SDS011;48849;48.758;9.158;2022-12-01T03:08:38;20.27;;;15.70;;
2211;SDS011;48849;48.758;9.158;2022-12-01T03:11:14;23.83;;;16.20;;
2211;SDS011;48849;48.758;9.158;2022-12-01T03:13:54;22.98;;;15.75;;
2211;SDS011;48849;48.758;9.158;2022-12-01T03:16:32;20.23;;;15.27;;
2211;SDS011;48849;48.758;9.158;2022-12-01T03:19:05;22.25;;;15.63;;
2211;SDS011;48849;48.758;9.158;2022-12-01T03:24:16;23.83;;;15.90;;
2211;SDS011;48849;48.758;9.158;2022-12-01T03:26:46;20.63;;;15.20;;
2211;SDS011;48849;48.758;9.158;2022-12-01T03:29:17;24.60;;;17.17;;
2211;SDS011;48849;48.758;9.158;2022-12-01T03:31:49;22.42;;;15.85;;
2211;SDS011;48849;48.758;9.158;2022-12-01T03:34:23;24.17;;;15.13;;
2211;SDS011;48849;48.758;9.158;2022-12-01T03:36:54;20.02;;;14.57;;
2211;SDS011;48849;48.758;9.158;2022-12-01T03:39:26;24.20;;;16.38;;
2211;SDS011;48849;48.758;9.158;2022-12-01T03:41:58;23.23;;;16.30;;
2211;SDS011;48849;48.758;9.158;2022-12-01T03:44:28;24.92;;;16.90;;
2211;SDS011;48849;48.758;9.158;2022-12-01T03:46:59;22.40;;;16.15;;
2211;SDS011;48849;48.758;9.158;2022-12-01T03:49:30;22.95;;;16.00;;
2211;SDS011;48849;48.758;9.158;2022-12-01T03:51:59;25.08;;;17.10;;
2211;SDS011;48849;48.758;9.158;2022-12-01T03:54:39;22.42;;;15.77;;
2211;SDS011;48849;48.758;9.158;2022-12-01T03:57:12;24.85;;;16.48;;
2211;SDS011;48849;48.758;9.158;2022-12-01T03:59:42;23.45;;;15.77;;
2211;SDS011;48849;48.758;9.158;2022-12-01T04:02:10;23.67;;;15.63;;
2211;SDS011;48849;48.758;9.158;2022-12-01T04:04:38;22.55;;;15.30;;
2211;SDS011;48849;48.758;9.158;2022-12-01T04:07:05;22.48;;;15.45;;
2211;SDS011;48849;48.758;9.158;2022-12-01T04:09:37;20.02;;;14.98;;
2211;SDS011;48849;48.758;9.158;2022-12-01T04:12:04;22.17;;;16.17;;
2211;SDS011;48849;48.758;9.158;2022-12-01T04:14:49;24.33;;;16.20;;
2211;SDS011;48849;48.758;9.158;2022-12-01T04:17:16;22.30;;;15.48;;
2211;SDS011;48849;48.758;9.158;2022-12-01T04:19:44;24.75;;;16.95;;
2211;SDS011;48849;48.758;9.158;2022-12-01T04:22:11;23.67;;;16.95;;
2211;SDS011;48849;48.758;9.158;2022-12-01T04:24:37;21.55;;;15.38;;
2211;SDS011;48849;48.758;9.158;2022-12-01T04:27:04;19.40;;;13.93;;
2211;SDS011;48849;48.758;9.158;2022-12-01T04:29:31;23.48;;;16.00;;
2211;SDS011;48849;48.758;9.158;2022-12-01T04:31:58;24.50;;;15.85;;
2211;SDS011;48849;48.758;9.158;2022-12-01T04:34:24;22.73;;;15.05;;
2211;SDS011;48849;48.758;9.158;2022-12-01T04:36:52;21.58;;;15.38;;
2211;SDS011;48849;48.758;9.158;2022-12-01T04:39:19;22.25;;;15.65;;
2211;SDS011;48849;48.758;9.158;2022-12-01T04:41:47;22.88;;;16.05;;
2211;SDS011;48849;48.758;9.158;2022-12-01T04:44:14;21.65;;;14.95;;
2211;SDS011;48849;48.758;9.158;2022-12-01T04:46:41;24.15;;;17.33;;
2211;SDS011;48849;48.758;9.158;2022-12-01T04:49:07;20.60;;;14.65;;
2211;SDS011;48849;48.758;9.158;2022-12-01T04:51:34;23.85;;;16.38;;
2211;SDS011;48849;48.758;9.158;2022-12-01T04:54:03;22.52;;;15.98;;
2211;SDS011;48849;48.758;9.158;2022-12-01T04:56:30;23.60;;;15.95;;
2211;SDS011;48849;48.758;9.158;2022-12-01T04:58:57;19.95;;;14.30;;
2211;SDS011;48849;48.758;9.158;2022-12-01T05:01:24;23.65;;;16.08;;
2211;SDS011;48849;48.758;9.158;2022-12-01T05:03:51;22.95;;;15.25;;
2211;SDS011;48849;48.758;9.158;2022-12-01T05:06:19;23.33;;;16.02;;
2211;SDS011;48849;48.758;9.158;2022-12-01T05:08:46;20.90;;;15.77;;
2211;SDS011;48849;48.758;9.158;2022-12-01T05:11:15;22.70;;;15.80;;
2211;SDS011;48849;48.758;9.158;2022-12-01T05:13:43;22.70;;;15.75;;
2211;SDS011;48849;48.758;9.158;2022-12-01T05:16:12;22.08;;;15.15;;
2211;SDS011;48849;48.758;9.158;2022-12-01T05:18:40;20.15;;;15.18;;
2211;SDS011;48849;48.758;9.158;2022-12-01T05:21:08;22.20;;;16.17;;
2211;SDS011;48849;48.758;9.158;2022-12-01T05:23:35;23.75;;;16.10;;
2211;SDS011;48849;48.758;9.158;2022-12-01T05:26:03;22.27;;;15.60;;
2211;SDS011;48849;48.758;9.158;2022-12-01T05:28:33;23.88;;;16.30;;
2211;SDS011;48849;48.758;9.158;2022-12-01T05:31:00;23.23;;;16.13;;
2211;SDS011;48849;48.758;9.158;2022-12-01T05:33:27;23.67;;;15.65;;
2211;SDS011;48849;48.758;9.158;2022-12-01T05:35:54;22.10;;;15.10;;
2211;SDS011;48849;48.758;9.158;2022-12-01T05:38:21;24.27;;;16.23;;
2211;SDS011;48849;48.758;9.158;2022-12-01T05:40:48;23.08;;;16.75;;
2211;SDS011;48849;48.758;9.158;2022-12-01T05:43:16;21.63;;;15.10;;
2211;SDS011;48849;48.758;9.158;2022-12-01T05:45:44;25.17;;;16.15;;
2211;SDS011;48849;48.758;9.158;2022-12-01T05:48:11;23.08;;;16.13;;
2211;SDS011;48849;48.758;9.158;2022-12-01T05:50:38;23.33;;;15.82;;
2211;SDS011;48849;48.758;9.158;2022-12-01T05:53:05;23.17;;;16.23;;
2211;SDS011;48849;48.758;9.158;2022-12-01T05:55:32;26.02;;;17.10;;
2211;SDS011;48849;48.758;9.158;2022-12-01T05:57:59;23.35;;;17.23;;
2211;SDS011;48849;48.758;9.158;2022-12-01T06:00:26;28.73;;;18.20;;
2211;SDS011;48849;48.758;9.158;2022-12-01T06:02:55;25.60;;;16.80;;
2211;SDS011;48849;48.758;9.158;2022-12-01T06:05:22;24.17;;;18.30;;
2211;SDS011;48849;48.758;9.158;2022-12-01T06:07:49;22.55;;;16.50;;
2211;SDS011;48849;48.758;9.158;2022-12-01T06:10:15;26.02;;;17.90;;
2211;SDS011;48849;48.758;9.158;2022-12-01T06:12:42;29.10;;;17.88;;
2211;SDS011;48849;48.758;9.158;2022-12-01T06:15:09;23.15;;;16.48;;
2211;SDS011;48849;48.758;9.158;2022-12-01T06:17:38;24.08;;;16.73;;
2211;SDS011;48849;48.758;9.158;2022-12-01T06:20:07;25.90;;;17.90;;
2211;SDS011;48849;48.758;9.158;2022-12-01T06:22:34;25.30;;;17.63;;
2211;SDS011;48849;48.758;9.158;2022-12-01T06:25:01;26.95;;;18.15;;
2211;SDS011;48849;48.758;9.158;2022-12-01T06:27:28;26.40;;;18.00;;
2211;SDS011;48849;48.758;9.158;2022-12-01T06:29:55;25.60;;;17.42;;
2211;SDS011;48849;48.758;9.158;2022-12-01T06:32:22;27.73;;;18.45;;
2211;SDS011;48849;48.758;9.158;2022-12-01T06:34:48;27.23;;;19.05;;
2211;SDS011;48849;48.758;9.158;2022-12-01T06:37:17;27.27;;;18.75;;
2211;SDS011;48849;48.758;9.158;2022-12-01T06:39:43;29.90;;;20.83;;
2211;SDS011;48849;48.758;9.158;2022-12-01T06:42:10;24.00;;;17.77;;
2211;SDS011;48849;48.758;9.158;2022-12-01T06:44:37;28.80;;;20.63;;
2211;SDS011;48849;48.758;9.158;2022-12-01T06:47:04;26.38;;;19.33;;
2211;SDS011;48849;48.758;9.158;2022-12-01T06:49:32;26.00;;;18.52;;
2211;SDS011;48849;48.758;9.158;2022-12-01T06:51:59;29.30;;;20.13;;
2211;SDS011;48849;48.758;9.158;2022-12-01T06:54:27;27.60;;;19.00;;
2211;SDS011;48849;48.758;9.158;2022-12-01T06:56:53;26.95;;;19.35;;
2211;SDS011;48849;48.758;9.158;2022-12-01T06:59:20;27.35;;;18.80;;
2211;SDS011;48849;48.758;9.158;2022-12-01T07:01:47;26.55;;;18.85;;
2211;SDS011;48849;48.758;9.158;2022-12-01T07:04:14;28.10;;;19.33;;
2211;SDS011;48849;48.758;9.158;2022-12-01T07:06:41;25.38;;;18.13;;
2211;SDS011;48849;48.758;9.158;2022-12-01T07:09:07;24.67;;;18.10;;
2211;SDS011;48849;48.758;9.158;2022-12-01T07:11:35;27.85;;;18.63;;
2211;SDS011;48849;48.758;9.158;2022-12-01T07:14:02;25.10;;;18.40;;
2211;SDS011;48849;48.758;9.158;2022-12-01T07:16:29;27.15;;;18.25;;
2211;SDS011;48849;48.758;9.158;2022-12-01T07:18:56;27.83;;;19.55;;
2211;SDS011;48849;48.758;9.158;2022-12-01T07:21:23;24.90;;;17.98;;
2211;SDS011;48849;48.758;9.158;2022-12-01T07:23:50;25.25;;;17.67;;
2211;SDS011;48849;48.758;9.158;2022-12-01T07:26:17;27.00;;;17.98;;
2211;SDS011;48849;48.758;9.158;2022-12-01T07:28:45;25.48;;;17.85;;
2211;SDS011;48849;48.758;9.158;2022-12-01T07:31:13;25.73;;;18.40;;
2211;SDS011;48849;48.758;9.158;2022-12-01T07:33:41;25.05;;;17.65;;
2211;SDS011;48849;48.758;9.158;2022-12-01T07:36:08;25.42;;;18.92;;
2211;SDS011;48849;48.758;9.158;2022-12-01T07:38:36;27.05;;;17.38;;
2211;SDS011;48849;48.758;9.158;2022-12-01T07:41:04;25.35;;;17.92;;
2211;SDS011;48849;48.758;9.158;2022-12-01T07:43:32;29.30;;;19.10;;
2211;SDS011;48849;48.758;9.158;2022-12-01T07:46:03;26.88;;;18.52;;
2211;SDS011;48849;48.758;9.158;2022-12-01T07:48:32;27.27;;;18.73;;
2211;SDS011;48849;48.758;9.158;2022-12-01T07:50:59;27.70;;;18.23;;
2211;SDS011;48849;48.758;9.158;2022-12-01T07:53:26;28.83;;;19.75;;
2211;SDS011;48849;48.758;9.158;2022-12-01T07:55:53;28.25;;;20.52;;
2211;SDS011;48849;48.758;9.158;2022-12-01T07:58:20;27.55;;;20.50;;
2211;SDS011;48849;48.758;9.158;2022-12-01T08:00:46;26.88;;;19.42;;
2211;SDS011;48849;48.758;9.158;2022-12-01T08:03:14;26.63;;;18.65;;
2211;SDS011;48849;48.758;9.158;2022-12-01T08:05:41;33.30;;;18.17;;
2211;SDS011;48849;48.758;9.158;2022-12-01T08:08:08;28.00;;;19.80;;
2211;SDS011;48849;48.758;9.158;2022-12-01T08:10:35;26.17;;;18.52;;
2211;SDS011;48849;48.758;9.158;2022-12-01T08:13:02;25.58;;;17.63;;
2211;SDS011;48849;48.758;9.158;2022-12-01T08:15:29;26.33;;;18.15;;
2211;SDS011;48849;48.758;9.158;2022-12-01T08:17:58;26.00;;;18.35;;
2211;SDS011;48849;48.758;9.158;2022-12-01T08:20:27;23.65;;;17.77;;
2211;SDS011;48849;48.758;9.158;2022-12-01T08:22:54;25.17;;;18.50;;
2211;SDS011;48849;48.758;9.158;2022-12-01T08:25:20;24.55;;;17.17;;
2211;SDS011;48849;48.758;9.158;2022-12-01T08:27:47;28.27;;;18.52;;
2211;SDS011;48849;48.758;9.158;2022-12-01T08:30:14;28.95;;;19.25;;
2211;SDS011;48849;48.758;9.158;2022-12-01T08:32:41;25.40;;;17.67;;
2211;SDS011;48849;48.758;9.158;2022-12-01T08:35:08;23.67;;;17.15;;
2211;SDS011;48849;48.758;9.158;2022-12-01T08:37:36;24.83;;;17.25;;
2211;SDS011;48849;48.758;9.158;2022-12-01T08:40:03;27.30;;;19.25;;
2211;SDS011;48849;48.758;9.158;2022-12-01T08:42:31;26.75;;;19.08;;
2211;SDS011;48849;48.758;9.158;2022-12-01T08:44:57;25.05;;;18.00;;
2211;SDS011;48849;48.758;9.158;2022-12-01T08:47:26;27.55;;;18.25;;
2211;SDS011;48849;48.758;9.158;2022-12-01T08:49:52;28.30;;;18.70;;
2211;SDS011;48849;48.758;9.158;2022-12-01T08:52:19;27.13;;;18.70;;
2211;SDS011;48849;48.758;9.158;2022-12-01T08:54:47;26.25;;;17.88;;
2211;SDS011;48849;48.758;9.158;2022-12-01T08:57:14;26.02;;;18.33;;
2211;SDS011;48849;48.758;9.158;2022-12-01T08:59:41;25.23;;;17.73;;
2211;SDS011;48849;48.758;9.158;2022-12-01T09:02:13;25.88;;;17.52;;
2211;SDS011;48849;48.758;9.158;2022-12-01T09:04:42;24.45;;;17.75;;
2211;SDS011;48849;48.758;9.158;2022-12-01T09:07:09;21.30;;;15.73;;
2211;SDS011;48849;48.758;9.158;2022-12-01T09:09:39;25.63;;;18.20;;
2211;SDS011;48849;48.758;9.158;2022-12-01T09:12:07;22.35;;;17.15;;
2211;SDS011;48849;48.758;9.158;2022-12-01T09:14:35;23.63;;;17.10;;
2211;SDS011;48849;48.758;9.158;2022-12-01T09:17:03;25.98;;;17.25;;
2211;SDS011;48849;48.758;9.158;2022-12-01T09:19:30;23.55;;;16.88;;
2211;SDS011;48849;48.758;9.158;2022-12-01T09:24:33;23.83;;;16.95;;
2211;SDS011;48849;48.758;9.158;2022-12-01T09:26:59;24.08;;;18.48;;
2211;SDS011;48849;48.758;9.158;2022-12-01T09:29:28;25.20;;;17.67;;
2211;SDS011;48849;48.758;9.158;2022-12-01T09:31:56;27.85;;;17.80;;
2211;SDS011;48849;48.758;9.158;2022-12-01T09:34:24;26.63;;;18.13;;
2211;SDS011;48849;48.758;9.158;2022-12-01T09:36:53;25.45;;;17.50;;
2211;SDS011;48849;48.758;9.158;2022-12-01T09:39:20;23.77;;;18.02;;
2211;SDS011;48849;48.758;9.158;2022-12-01T09:41:48;24.58;;;17.02;;
2211;SDS011;48849;48.758;9.158;2022-12-01T09:44:19;25.45;;;17.50;;
2211;SDS011;48849;48.758;9.158;2022-12-01T09:47:02;24.40;;;17.00;;
2211;SDS011;48849;48.758;9.158;2022-12-01T09:49:40;24.52;;;17.27;;
2211;SDS011;48849;48.758;9.158;2022-12-01T09:52:11;22.48;;;16.63;;
2211;SDS011;48849;48.758;9.158;2022-12-01T09:54:39;24.98;;;17.20;;
2211;SDS011;48849;48.758;9.158;2022-12-01T09:57:09;24.02;;;17.15;;
2211;SDS011;48849;48.758;9.158;2022-12-01T09:59:41;24.15;;;17.45;;
2211;SDS011;48849;48.758;9.158;2022-12-01T10:02:15;22.35;;;16.73;;
2211;SDS011;48849;48.758;9.158;2022-12-01T10:04:50;23.02;;;16.90;;
2211;SDS011;48849;48.758;9.158;2022-12-01T10:07:20;25.27;;;18.10;;
2211;SDS011;48849;48.758;9.158;2022-12-01T10:09:51;27.65;;;18.73;;
2211;SDS011;48849;48.758;9.158;2022-12-01T10:12:21;25.92;;;18.30;;
2211;SDS011;48849;48.758;9.158;2022-12-01T10:14:55;25.15;;;18.17;;
2211;SDS011;48849;48.758;9.158;2022-12-01T10:17:27;25.85;;;18.40;;
2211;SDS011;48849;48.758;9.158;2022-12-01T10:20:00;24.10;;;16.65;;
2211;SDS011;48849;48.758;9.158;2022-12-01T10:25:48;23.50;;;17.50;;
2211;SDS011;48849;48.758;9.158;2022-12-01T10:28:29;27.92;;;18.00;;
2211;SDS011;48849;48.758;9.158;2022-12-01T10:31:22;23.85;;;16.67;;
2211;SDS011;48849;48.758;9.158;2022-12-01T10:34:02;25.25;;;17.55;;
2211;SDS011;48849;48.758;9.158;2022-12-01T10:36:36;23.98;;;17.20;;
2211;SDS011;48849;48.758;9.158;2022-12-01T10:39:03;24.33;;;17.92;;
2211;SDS011;48849;48.758;9.158;2022-12-01T10:41:32;24.77;;;17.23;;
2211;SDS011;48849;48.758;9.158;2022-12-01T10:44:02;25.73;;;17.70;;
2211;SDS011;48849;48.758;9.158;2022-12-01T10:46:34;23.90;;;17.38;;
2211;SDS011;48849;48.758;9.158;2022-12-01T10:49:07;23.98;;;16.65;;
2211;SDS011;48849;48.758;9.158;2022-12-01T10:51:46;22.30;;;17.00;;
2211;SDS011;48849;48.758;9.158;2022-12-01T10:54:15;24.23;;;16.65;;
2211;SDS011;48849;48.758;9.158;2022-12-01T10:56:42;22.27;;;16.63;;
2211;SDS011;48849;48.758;9.158;2022-12-01T10:59:20;25.63;;;17.10;;
2211;SDS011;48849;48.758;9.158;2022-12-01T11:01:51;24.23;;;17.27;;
2211;SDS011;48849;48.758;9.158;2022-12-01T11:04:26;24.60;;;17.63;;
2211;SDS011;48849;48.758;9.158;2022-12-01T11:07:06;23.30;;;17.13;;
2211;SDS011;48849;48.758;9.158;2022-12-01T11:09:41;24.08;;;17.73;;
2211;SDS011;48849;48.758;9.158;2022-12-01T11:12:12;23.98;;;16.13;;
2211;SDS011;48849;48.758;9.158;2022-12-01T11:14:42;22.35;;;16.00;;
2211;SDS011;48849;48.758;9.158;2022-12-01T11:17:22;24.02;;;18.33;;
2211;SDS011;48849;48.758;9.158;2022-12-01T11:19:55;22.48;;;17.20;;
2211;SDS011;48849;48.758;9.158;2022-12-01T11:22:23;23.90;;;17.33;;
2211;SDS011;48849;48.758;9.158;2022-12-01T11:24:55;21.27;;;16.17;;
2211;SDS011;48849;48.758;9.158;2022-12-01T11:27:25;21.98;;;16.88;;
2211;SDS011;48849;48.758;9.158;2022-12-01T11:29:55;20.25;;;15.52;;
2211;SDS011;48849;48.758;9.158;2022-12-01T11:32:25;22.52;;;16.90;;
2211;SDS011;48849;48.758;9.158;2022-12-01T11:34:55;23.20;;;17.15;;
2211;SDS011;48849;48.758;9.158;2022-12-01T11:37:24;23.15;;;16.67;;
2211;SDS011;48849;48.758;9.158;2022-12-01T11:40:03;24.73;;;16.85;;
2211;SDS011;48849;48.758;9.158;2022-12-01T11:42:32;23.60;;;16.75;;
2211;SDS011;48849;48.758;9.158;2022-12-01T11:45:04;24.60;;;17.15;;
2211;SDS011;48849;48.758;9.158;2022-12-01T11:47:35;21.75;;;16.40;;
2211;SDS011;48849;48.758;9.158;2022-12-01T11:50:32;23.45;;;16.98;;
2211;SDS011;48849;48.758;9.158;2022-12-01T11:53:00;24.55;;;16.80;;
2211;SDS011;48849;48.758;9.158;2022-12-01T11:55:27;22.08;;;16.38;;
2211;SDS011;48849;48.758;9.158;2022-12-01T11:57:56;25.73;;;16.65;;
2211;SDS011;48849;48.758;9.158;2022-12-01T12:00:26;22.55;;;15.90;;
2211;SDS011;48849;48.758;9.158;2022-12-01T12:03:14;23.17;;;16.23;;
2211;SDS011;48849;48.758;9.158;2022-12-01T12:08:44;21.67;;;15.10;;
2211;SDS011;48849;48.758;9.158;2022-12-01T12:11:24;22.75;;;17.15;;
2211;SDS011;48849;48.758;9.158;2022-12-01T12:14:00;22.80;;;16.77;;
2211;SDS011;48849;48.758;9.158;2022-12-01T12:16:49;22.67;;;16.05;;
2211;SDS011;48849;48.758;9.158;2022-12-01T12:19:34;24.33;;;17.70;;
2211;SDS011;48849;48.758;9.158;2022-12-01T12:22:20;22.33;;;15.95;;
2211;SDS011;48849;48.758;9.158;2022-12-01T12:24:54;23.35;;;16.90;;
2211;SDS011;48849;48.758;9.158;2022-12-01T12:27:36;22.23;;;15.77;;
2211;SDS011;48849;48.758;9.158;2022-12-01T12:30:19;25.73;;;18.17;;
2211;SDS011;48849;48.758;9.158;2022-12-01T12:32:58;25.27;;;16.25;;
2211;SDS011;48849;48.758;9.158;2022-12-01T12:35:36;26.17;;;16.60;;
2211;SDS011;48849;48.758;9.158;2022-12-01T12:38:12;22.80;;;15.82;;
2211;SDS011;48849;48.758;9.158;2022-12-01T12:40:50;23.38;;;16.85;;
2211;SDS011;48849;48.758;9.158;2022-12-01T12:43:22;24.90;;;16.50;;
2211;SDS011;48849;48.758;9.158;2022-12-01T12:45:59;24.55;;;16.85;;
2211;SDS011;48849;48.758;9.158;2022-12-01T12:48:34;23.60;;;16.38;;
2211;SDS011;48849;48.758;9.158;2022-12-01T12:51:21;23.58;;;17.15;;
2211;SDS011;48849;48.758;9.158;2022-12-01T12:53:51;24.60;;;16.05;;
2211;SDS011;48849;48.758;9.158;2022-12-01T12:56:22;20.73;;;15.77;;
2211;SDS011;48849;48.758;9.158;2022-12-01T12:58:52;21.98;;;15.20;;
2211;SDS011;48849;48.758;9.158;2022-12-01T13:01:24;22.58;;;16.33;;
2211;SDS011;48849;48.758;9.158;2022-12-01T13:03:54;22.02;;;15.68;;
2211;SDS011;48849;48.758;9.158;2022-12-01T13:06:28;21.92;;;15.20;;
2211;SDS011;48849;48.758;9.158;2022-12-01T13:08:59;20.45;;;15.23;;
2211;SDS011;48849;48.758;9.158;2022-12-01T13:11:29;20.27;;;15.20;;
2211;SDS011;48849;48.758;9.158;2022-12-01T13:14:01;24.67;;;16.48;;
2211;SDS011;48849;48.758;9.158;2022-12-01T13:16:32;22.13;;;15.50;;
2211;SDS011;48849;48.758;9.158;2022-12-01T13:19:02;21.65;;;15.50;;
2211;SDS011;48849;48.758;9.158;2022-12-01T13:21:38;20.98;;;15.38;;
2211;SDS011;48849;48.758;9.158;2022-12-01T13:24:08;23.42;;;16.63;;
2211;SDS011;48849;48.758;9.158;2022-12-01T13:26:37;22.60;;;16.45;;
2211;SDS011;48849;48.758;9.158;2022-12-01T13:29:06;21.23;;;14.68;;
2211;SDS011;48849;48.758;9.158;2022-12-01T13:31:40;23.45;;;15.77;;
2211;SDS011;48849;48.758;9.158;2022-12-01T13:34:14;20.83;;;15.05;;
2211;SDS011;48849;48.758;9.158;2022-12-01T13:36:48;22.08;;;15.45;;
2211;SDS011;48849;48.758;9.158;2022-12-01T13:39:17;22.90;;;16.02;;
2211;SDS011;48849;48.758;9.158;2022-12-01T13:41:45;19.35;;;14.55;;
2211;SDS011;48849;48.758;9.158;2022-12-01T13:44:24;20.75;;;15.05;;
2211;SDS011;48849;48.758;9.158;2022-12-01T13:46:56;22.73;;;15.57;;
2211;SDS011;48849;48.758;9.158;2022-12-01T13:49:32;20.98;;;14.68;;
2211;SDS011;48849;48.758;9.158;2022-12-01T13:52:29;23.02;;;15.65;;
2211;SDS011;48849;48.758;9.158;2022-12-01T14:00:46;19.60;;;14.55;;
2211;SDS011;48849;48.758;9.158;2022-12-01T14:03:31;19.13;;;14.40;;
2211;SDS011;48849;48.758;9.158;2022-12-01T14:06:08;22.45;;;14.98;;
2211;SDS011;48849;48.758;9.158;2022-12-01T14:08:47;20.35;;;14.80;;
2211;SDS011;48849;48.758;9.158;2022-12-01T14:11:17;21.98;;;15.63;;
2211;SDS011;48849;48.758;9.158;2022-12-01T14:13:48;20.70;;;14.45;;
2211;SDS011;48849;48.758;9.158;2022-12-01T14:16:18;20.55;;;14.32;;
2211;SDS011;48849;48.758;9.158;2022-12-01T14:18:48;20.05;;;14.55;;
2211;SDS011;48849;48.758;9.158;2022-12-01T14:21:16;22.00;;;14.93;;
2211;SDS011;48849;48.758;9.158;2022-12-01T14:24:19;21.27;;;14.63;;
2211;SDS011;48849;48.758;9.158;2022-12-01T14:26:48;20.60;;;15.00;;
2211;SDS011;48849;48.758;9.158;2022-12-01T14:29:23;22.27;;;15.52;;
2211;SDS011;48849;48.758;9.158;2022-12-01T14:34:58;19.30;;;14.30;;
2211;SDS011;48849;48.758;9.158;2022-12-01T14:37:36;22.38;;;14.57;;
2211;SDS011;48849;48.758;9.158;2022-12-01T14:40:12;21.85;;;15.40;;
2211;SDS011;48849;48.758;9.158;2022-12-01T14:42:43;22.30;;;15.13;;
2211;SDS011;48849;48.758;9.158;2022-12-01T14:45:32;19.30;;;14.80;;
2211;SDS011;48849;48.758;9.158;2022-12-01T14:48:05;21.90;;;15.30;;
2211;SDS011;48849;48.758;9.158;2022-12-01T14:50:37;23.05;;;16.92;;
2211;SDS011;48849;48.758;9.158;2022-12-01T14:53:09;21.88;;;14.95;;
2211;SDS011;48849;48.758;9.158;2022-12-01T14:55:45;21.75;;;16.02;;
2211;SDS011;48849;48.758;9.158;2022-12-01T14:58:16;23.80;;;16.52;;
2211;SDS011;48849;48.758;9.158;2022-12-01T15:00:54;25.25;;;14.95;;
2211;SDS011;48849;48.758;9.158;2022-12-01T15:03:25;22.85;;;14.50;;
2211;SDS011;48849;48.758;9.158;2022-12-01T15:05:54;19.65;;;14.32;;
2211;SDS011;48849;48.758;9.158;2022-12-01T15:08:22;23.15;;;15.45;;
2211;SDS011;48849;48.758;9.158;2022-12-01T15:10:53;22.92;;;15.40;;
2211;SDS011;48849;48.758;9.158;2022-12-01T15:13:22;24.05;;;15.73;;
2211;SDS011;48849;48.758;9.158;2022-12-01T15:15:52;22.02;;;14.70;;
2211;SDS011;48849;48.758;9.158;2022-12-01T15:18:21;20.65;;;14.45;;